createdAt,value
2023-02-11T09:26:44.957Z,3.30
2023-02-11T09:27:45.920Z,4.20
2023-02-11T09:28:46.017Z,4.20
2023-02-11T09:29:45.882Z,4.70
2023-02-11T09:30:45.975Z,4.40
2023-02-11T09:31:45.953Z,5.40
2023-02-11T09:32:45.837Z,5.10
2023-02-11T09:33:45.841Z,4.70
2023-02-11T09:34:45.803Z,4.70
2023-02-11T09:35:45.833Z,4.70
2023-02-11T09:36:45.787Z,4.70
2023-02-11T09:37:45.780Z,4.70
2023-02-11T09:38:45.775Z,4.70
2023-02-11T09:39:45.791Z,4.60
2023-02-11T09:40:45.767Z,4.50
2023-02-11T09:41:45.731Z,4.00
2023-02-11T09:42:45.718Z,4.40
2023-02-11T09:43:45.718Z,4.30
2023-02-11T09:44:45.748Z,4.30
2023-02-11T09:45:45.773Z,4.40
2023-02-11T09:46:45.673Z,4.20
2023-02-11T09:47:45.699Z,4.40
2023-02-11T09:48:45.682Z,4.30
2023-02-11T09:49:45.680Z,4.30
2023-02-11T09:50:45.646Z,4.30
2023-02-11T09:51:45.629Z,4.00
2023-02-11T09:52:45.612Z,4.20
2023-02-11T09:53:45.619Z,4.20
2023-02-11T09:54:45.598Z,4.10
2023-02-11T09:55:45.597Z,4.00
2023-02-11T09:56:45.575Z,4.00
2023-02-11T09:57:45.572Z,4.20
2023-02-11T09:58:45.604Z,6.10
2023-02-11T09:59:45.599Z,7.00
2023-02-11T10:00:45.555Z,5.80
2023-02-11T10:01:45.598Z,4.90
2023-02-11T10:02:45.504Z,4.70
2023-02-11T10:03:45.510Z,4.40
2023-02-11T10:04:45.493Z,4.40
2023-02-11T10:05:45.527Z,2.50
2023-02-11T10:06:45.470Z,2.10
2023-02-11T10:07:45.492Z,1.80
2023-02-11T10:08:45.462Z,1.60
